createdAt,value
2018-04-08T00:00:17.398Z,0.00
2018-04-08T00:01:17.396Z,0.00
2018-04-08T00:02:17.392Z,0.00
2018-04-08T00:03:17.389Z,0.00
2018-04-08T00:04:17.387Z,0.00
2018-04-08T00:05:17.385Z,0.00
2018-04-08T00:06:17.384Z,0.00
2018-04-08T00:07:17.384Z,0.00
2018-04-08T00:08:17.381Z,0.00
2018-04-08T00:09:17.384Z,0.00
2018-04-08T00:10:17.377Z,0.00
2018-04-08T00:11:17.376Z,0.00
2018-04-08T00:12:17.378Z,0.00
2018-04-08T00:13:17.377Z,0.00
2018-04-08T00:14:17.375Z,0.00
2018-04-08T00:15:17.373Z,0.00
2018-04-08T00:16:17.369Z,0.00
2018-04-08T00:17:17.365Z,0.00
2018-04-08T00:18:17.365Z,0.00
2018-04-08T00:19:17.362Z,0.00
2018-04-08T00:20:17.360Z,0.00
2018-04-08T00:21:17.360Z,0.00
2018-04-08T00:22:17.358Z,0.00
2018-04-08T00:23:17.356Z,0.00
2018-04-08T00:24:17.356Z,0.00
2018-04-08T00:25:17.355Z,0.00
2018-04-08T00:26:17.354Z,0.00
2018-04-08T00:27:17.353Z,0.00
2018-04-08T00:28:17.346Z,0.00
2018-04-08T00:29:17.345Z,0.00
2018-04-08T00:30:17.345Z,0.00
2018-04-08T00:31:17.341Z,0.00
2018-04-08T00:32:17.344Z,0.00
2018-04-08T00:33:17.342Z,0.00
2018-04-08T00:34:17.338Z,0.00
2018-04-08T00:35:17.334Z,0.00
2018-04-08T00:36:17.334Z,0.00
2018-04-08T00:37:17.331Z,0.00
2018-04-08T00:38:17.330Z,0.00
2018-04-08T00:39:17.327Z,0.00
2018-04-08T00:40:17.327Z,0.00
2018-04-08T00:41:17.326Z,0.00
2018-04-08T00:42:17.323Z,0.00
2018-04-08T00:43:17.321Z,0.00
2018-04-08T00:44:17.322Z,0.00
2018-04-08T00:45:17.321Z,0.00
2018-04-08T00:46:17.320Z,0.00
2018-04-08T00:47:17.317Z,0.00
2018-04-08T00:48:17.312Z,0.00
2018-04-08T00:49:17.311Z,0.00
2018-04-08T00:50:17.308Z,0.00
2018-04-08T00:51:17.306Z,0.00
2018-04-08T00:52:17.304Z,0.00
2018-04-08T00:53:17.304Z,0.00
2018-04-08T00:54:17.301Z,0.00
2018-04-08T00:55:17.300Z,0.00
2018-04-08T00:56:17.298Z,0.00
2018-04-08T00:57:17.296Z,0.00
2018-04-08T00:58:17.299Z,0.00
2018-04-08T00:59:17.295Z,0.00
2018-04-08T01:00:17.289Z,0.00
2018-04-08T01:01:17.288Z,0.00
2018-04-08T01:02:17.286Z,0.00
2018-04-08T01:03:17.283Z,0.00
2018-04-08T01:04:17.286Z,0.00
2018-04-08T01:05:17.284Z,0.00
2018-04-08T01:06:17.278Z,0.00
2018-04-08T01:07:17.277Z,0.00
2018-04-08T01:08:17.274Z,0.00
2018-04-08T01:09:17.273Z,0.00
2018-04-08T01:10:17.271Z,0.00
2018-04-08T01:11:17.269Z,0.00
2018-04-08T01:12:17.266Z,0.00
2018-04-08T01:13:17.265Z,0.00
2018-04-08T01:14:17.263Z,0.00
2018-04-08T01:15:17.261Z,0.00
2018-04-08T01:16:17.268Z,0.00
2018-04-08T01:17:17.261Z,0.00
2018-04-08T01:18:17.259Z,0.00
2018-04-08T01:19:17.256Z,0.00
2018-04-08T01:20:17.250Z,0.00
2018-04-08T01:21:17.251Z,0.00
2018-04-08T01:22:17.247Z,0.00
2018-04-08T01:23:17.246Z,0.00
2018-04-08T01:24:17.243Z,0.00
2018-04-08T01:25:17.241Z,0.00
2018-04-08T01:26:17.240Z,0.00
2018-04-08T01:27:17.237Z,0.00
2018-04-08T01:28:17.236Z,0.00
2018-04-08T01:29:17.233Z,0.00
2018-04-08T01:30:17.236Z,0.00
2018-04-08T01:31:17.232Z,0.00
2018-04-08T01:32:17.226Z,0.00
2018-04-08T01:33:17.226Z,0.00
2018-04-08T01:34:17.223Z,0.00
2018-04-08T01:35:17.220Z,0.00
2018-04-08T01:36:17.219Z,0.00
2018-04-08T01:37:17.218Z,0.00
2018-04-08T01:38:17.221Z,0.00
2018-04-08T01:39:17.216Z,0.00
2018-04-08T01:40:17.211Z,0.00
2018-04-08T01:41:17.208Z,0.00
2018-04-08T01:42:17.210Z,0.00
2018-04-08T01:43:17.208Z,0.00
2018-04-08T01:44:17.201Z,0.00
2018-04-08T01:45:17.201Z,0.00
2018-04-08T01:46:17.198Z,0.00
2018-04-08T01:47:17.195Z,0.00
2018-04-08T01:48:17.194Z,0.00
2018-04-08T01:49:17.192Z,0.00
2018-04-08T01:50:17.190Z,0.00
2018-04-08T01:51:17.186Z,0.00
2018-04-08T01:52:17.186Z,0.00
2018-04-08T01:53:17.184Z,0.00
2018-04-08T01:54:17.181Z,0.00
2018-04-08T01:55:17.178Z,0.00
2018-04-08T01:56:17.182Z,0.00
2018-04-08T01:57:17.178Z,0.00
2018-04-08T01:58:17.172Z,0.00
2018-04-08T01:59:17.171Z,0.00
2018-04-08T02:00:17.172Z,0.00
2018-04-08T02:01:17.170Z,0.00
2018-04-08T02:02:17.164Z,0.00
2018-04-08T02:03:17.162Z,0.00
2018-04-08T02:04:17.159Z,0.00
2018-04-08T02:05:17.158Z,0.00
2018-04-08T02:06:17.156Z,0.00
2018-04-08T02:07:17.154Z,0.00
2018-04-08T02:08:17.150Z,0.00
2018-04-08T02:09:17.149Z,0.00
2018-04-08T02:10:17.151Z,0.00
2018-04-08T02:11:17.148Z,0.00
2018-04-08T02:12:17.143Z,0.00
2018-04-08T02:13:17.141Z,0.00
2018-04-08T02:14:17.143Z,0.00
2018-04-08T02:15:17.139Z,0.00
2018-04-08T02:16:17.133Z,0.00
2018-04-08T02:17:17.131Z,0.00
2018-04-08T02:18:17.130Z,0.00
2018-04-08T02:19:17.127Z,0.00
2018-04-08T02:20:17.126Z,0.00
2018-04-08T02:21:17.124Z,0.00
2018-04-08T02:22:17.125Z,0.00
2018-04-08T02:23:17.119Z,0.00
2018-04-08T02:24:17.116Z,0.00
2018-04-08T02:25:17.115Z,0.00
2018-04-08T02:26:17.113Z,0.00
2018-04-08T02:27:17.110Z,0.00
2018-04-08T02:28:17.112Z,0.00
2018-04-08T02:29:17.110Z,0.00
2018-04-08T02:30:17.106Z,0.00
2018-04-08T02:31:17.111Z,0.00
2018-04-08T02:32:17.104Z,0.00
2018-04-08T02:33:17.105Z,0.00
2018-04-08T02:34:17.098Z,0.00
2018-04-08T02:35:17.093Z,0.00
2018-04-08T02:36:17.092Z,0.00
2018-04-08T02:37:17.090Z,0.00
2018-04-08T02:38:17.089Z,0.00
2018-04-08T02:39:17.086Z,0.00
2018-04-08T02:40:17.088Z,0.00
2018-04-08T02:41:17.087Z,0.00
2018-04-08T02:42:17.080Z,0.00
2018-04-08T02:43:17.077Z,0.00
2018-04-08T02:44:17.078Z,0.00
2018-04-08T02:45:17.074Z,0.00
2018-04-08T02:46:17.076Z,0.00
2018-04-08T02:47:17.069Z,0.00
2018-04-08T02:48:17.068Z,0.00
2018-04-08T02:49:17.066Z,0.00
2018-04-08T02:50:17.063Z,0.00
2018-04-08T02:51:17.061Z,0.00
2018-04-08T02:52:17.064Z,0.00
2018-04-08T02:53:17.062Z,0.00
2018-04-08T02:54:17.059Z,0.00
2018-04-08T02:55:17.058Z,0.00
2018-04-08T02:56:17.050Z,0.00
2018-04-08T02:57:17.049Z,0.00
2018-04-08T02:58:17.047Z,0.00
2018-04-08T02:59:17.045Z,0.00
2018-04-08T03:00:17.043Z,0.00
2018-04-08T03:01:17.041Z,0.00
2018-04-08T03:02:17.040Z,0.00
2018-04-08T03:03:17.040Z,0.00
2018-04-08T03:04:17.041Z,0.00
2018-04-08T03:05:17.033Z,0.00
2018-04-08T03:06:17.036Z,0.00
2018-04-08T03:07:17.032Z,0.00
2018-04-08T03:08:17.028Z,0.00
2018-04-08T03:09:17.025Z,0.00
2018-04-08T03:10:17.024Z,0.00
2018-04-08T03:11:17.020Z,0.00
2018-04-08T03:12:17.021Z,0.00
2018-04-08T03:13:17.019Z,0.00
2018-04-08T03:14:17.015Z,0.00
2018-04-08T03:15:17.011Z,0.00
2018-04-08T03:16:17.010Z,0.00
2018-04-08T03:17:17.008Z,0.00
2018-04-08T03:18:17.007Z,0.00
2018-04-08T03:19:17.004Z,0.00
2018-04-08T03:20:17.002Z,0.00
2018-04-08T03:21:16.999Z,0.00
2018-04-08T03:22:16.998Z,0.00
2018-04-08T03:23:16.994Z,0.00
2018-04-08T03:24:16.997Z,0.00
2018-04-08T03:25:16.995Z,0.00
2018-04-08T03:26:16.996Z,0.00
2018-04-08T03:27:16.990Z,0.00
2018-04-08T03:28:16.985Z,0.00
2018-04-08T03:29:16.983Z,0.00
2018-04-08T03:30:16.987Z,0.00
2018-04-08T03:31:16.980Z,0.00
2018-04-08T03:32:16.979Z,0.00
2018-04-08T03:33:16.974Z,0.00
2018-04-08T03:34:16.978Z,0.00
2018-04-08T03:35:16.970Z,0.00
2018-04-08T03:36:16.969Z,0.00
2018-04-08T03:37:16.966Z,0.00
2018-04-08T03:38:16.973Z,0.00
2018-04-08T03:39:16.966Z,0.00
2018-04-08T03:40:16.960Z,0.00
2018-04-08T03:41:16.958Z,0.00
2018-04-08T03:42:16.958Z,0.00
2018-04-08T03:43:16.954Z,0.00
2018-04-08T03:44:16.952Z,0.00
2018-04-08T03:45:16.951Z,0.00
2018-04-08T03:46:16.952Z,0.00
2018-04-08T03:47:16.949Z,0.00
2018-04-08T03:48:16.950Z,0.00
2018-04-08T03:49:16.941Z,0.00
2018-04-08T03:50:16.944Z,0.00
2018-04-08T03:51:16.942Z,0.00
2018-04-08T03:52:16.935Z,0.00
2018-04-08T03:53:16.934Z,0.00
2018-04-08T03:54:16.934Z,0.00
2018-04-08T03:55:16.930Z,0.00
2018-04-08T03:56:16.928Z,0.00
2018-04-08T03:57:16.926Z,0.00
2018-04-08T03:58:16.925Z,0.00
2018-04-08T03:59:16.923Z,0.00
2018-04-08T04:00:16.920Z,0.00
2018-04-08T04:01:16.926Z,0.00
2018-04-08T04:02:16.917Z,0.00
2018-04-08T04:03:16.915Z,0.00
2018-04-08T04:04:16.920Z,0.00
2018-04-08T04:05:16.915Z,0.00
2018-04-08T04:06:16.909Z,0.00
2018-04-08T04:07:16.906Z,0.00
2018-04-08T04:08:16.909Z,0.00
2018-04-08T04:09:16.908Z,0.00
2018-04-08T04:10:16.903Z,0.00
2018-04-08T04:11:16.900Z,0.00
2018-04-08T04:12:16.898Z,0.00
2018-04-08T04:13:16.896Z,0.00
2018-04-08T04:14:16.897Z,0.00
2018-04-08T04:15:16.892Z,0.00
2018-04-08T04:16:16.891Z,0.00
2018-04-08T04:17:16.888Z,0.00
2018-04-08T04:18:16.890Z,0.00
2018-04-08T04:19:16.888Z,0.00
2018-04-08T04:20:16.882Z,0.00
2018-04-08T04:21:16.880Z,0.00
2018-04-08T04:22:16.884Z,0.00
2018-04-08T04:23:16.880Z,0.00
2018-04-08T04:24:16.876Z,4.00
2018-04-08T04:25:16.873Z,4.00
2018-04-08T04:26:16.872Z,0.00
2018-04-08T04:27:16.870Z,4.00
2018-04-08T04:28:16.867Z,4.00
2018-04-08T04:29:16.864Z,4.00
2018-04-08T04:30:16.864Z,4.00
2018-04-08T04:31:16.865Z,8.00
2018-04-08T04:32:16.860Z,8.00
2018-04-08T04:33:16.858Z,8.00
2018-04-08T04:34:16.855Z,8.00
2018-04-08T04:35:16.880Z,12.00
2018-04-08T04:36:16.855Z,16.00
2018-04-08T04:37:16.853Z,16.00
2018-04-08T04:38:16.848Z,20.00
2018-04-08T04:39:16.844Z,24.00
2018-04-08T04:40:16.847Z,28.00
2018-04-08T04:41:16.844Z,32.00
2018-04-08T04:42:16.840Z,36.00
2018-04-08T04:43:16.836Z,40.00
2018-04-08T04:44:16.841Z,48.00
2018-04-08T04:45:16.832Z,52.00
2018-04-08T04:46:16.832Z,64.00
2018-04-08T04:47:16.828Z,72.00
2018-04-08T04:48:16.835Z,80.00
2018-04-08T04:49:16.828Z,92.00
2018-04-08T04:50:16.824Z,104.00
2018-04-08T04:51:16.840Z,116.00
2018-04-08T04:52:16.817Z,128.00
2018-04-08T04:53:16.817Z,140.00
2018-04-08T04:54:16.816Z,152.00
2018-04-08T04:55:16.811Z,168.00
2018-04-08T04:56:16.809Z,184.00
2018-04-08T04:57:16.807Z,208.00
2018-04-08T04:58:16.806Z,224.00
2018-04-08T04:59:16.803Z,240.00
2018-04-08T05:00:16.807Z,260.00
2018-04-08T05:01:16.803Z,276.00
2018-04-08T05:02:16.801Z,292.00
2018-04-08T05:03:16.799Z,312.00
2018-04-08T05:04:16.792Z,336.00
2018-04-08T05:05:16.790Z,360.00
2018-04-08T05:06:16.789Z,384.00
2018-04-08T05:07:16.786Z,404.00
2018-04-08T05:08:16.784Z,424.00
2018-04-08T05:09:16.782Z,440.00
2018-04-08T05:10:16.781Z,460.00
2018-04-08T05:11:16.777Z,476.00
2018-04-08T05:12:16.775Z,500.00
2018-04-08T05:13:16.773Z,528.00
2018-04-08T05:14:16.775Z,556.00
2018-04-08T05:15:16.772Z,584.00
2018-04-08T05:16:16.769Z,616.00
2018-04-08T05:17:16.764Z,648.00
2018-04-08T05:18:16.762Z,692.00
2018-04-08T05:19:16.760Z,736.00
2018-04-08T05:20:16.762Z,784.00
2018-04-08T05:21:16.760Z,832.00
2018-04-08T05:22:16.755Z,884.00
2018-04-08T05:23:16.752Z,908.00
2018-04-08T05:24:16.749Z,928.00
2018-04-08T05:25:16.748Z,956.00
2018-04-08T05:26:16.746Z,996.00
2018-04-08T05:27:16.744Z,1040.00
2018-04-08T05:28:16.742Z,1092.00
2018-04-08T05:29:16.739Z,1148.00
2018-04-08T05:30:16.738Z,1208.00
2018-04-08T05:31:16.735Z,1276.00
2018-04-08T05:32:16.738Z,1320.00
2018-04-08T05:33:16.738Z,1356.00
2018-04-08T05:34:16.736Z,1400.00
2018-04-08T05:35:16.731Z,1440.00
2018-04-08T05:36:16.724Z,1480.00
2018-04-08T05:37:16.729Z,1532.00
2018-04-08T05:38:16.721Z,1588.00
2018-04-08T05:39:16.718Z,1640.00
2018-04-08T05:40:16.720Z,1680.00
2018-04-08T05:41:16.716Z,1720.00
2018-04-08T05:42:16.717Z,1752.00
2018-04-08T05:43:16.713Z,1776.00
2018-04-08T05:44:16.709Z,1804.00
2018-04-08T05:45:16.708Z,1836.00
2018-04-08T05:46:16.710Z,1896.00
2018-04-08T05:47:16.708Z,1964.00
2018-04-08T05:48:16.702Z,2060.00
2018-04-08T05:49:16.699Z,2180.00
2018-04-08T05:50:16.699Z,2324.00
2018-04-08T05:51:16.696Z,2496.00
2018-04-08T05:52:16.693Z,2624.00
2018-04-08T05:53:16.693Z,2732.00
2018-04-08T05:54:16.694Z,2828.00
2018-04-08T05:55:16.691Z,2908.00
2018-04-08T05:56:16.686Z,2960.00
2018-04-08T05:57:16.684Z,3032.00
2018-04-08T05:58:16.687Z,3088.00
2018-04-08T05:59:16.684Z,3160.00
2018-04-08T06:00:16.679Z,3256.00
2018-04-08T06:01:16.678Z,3396.00
2018-04-08T06:02:16.682Z,3544.00
2018-04-08T06:03:16.675Z,3444.00
2018-04-08T06:04:16.672Z,3376.00
2018-04-08T06:05:16.671Z,3364.00
2018-04-08T06:06:16.669Z,3384.00
2018-04-08T06:07:16.671Z,3456.00
2018-04-08T06:08:16.666Z,3544.00
2018-04-08T06:09:16.666Z,3652.00
2018-04-08T06:10:16.664Z,3772.00
2018-04-08T06:11:16.662Z,3864.00
2018-04-08T06:12:16.663Z,3956.00
2018-04-08T06:13:16.662Z,4196.00
2018-04-08T06:14:16.661Z,4140.00
2018-04-08T06:15:16.657Z,4212.00
2018-04-08T06:16:16.658Z,4268.00
2018-04-08T06:17:16.656Z,4316.00
2018-04-08T06:18:16.653Z,4392.00
2018-04-08T06:19:16.650Z,4440.00
2018-04-08T06:20:16.650Z,4424.00
2018-04-08T06:21:16.652Z,4388.00
2018-04-08T06:22:16.647Z,4352.00
2018-04-08T06:23:16.644Z,4380.00
2018-04-08T06:24:16.643Z,4500.00
2018-04-08T06:25:16.645Z,4696.00
2018-04-08T06:26:16.645Z,4880.00
2018-04-08T06:27:16.643Z,5040.00
2018-04-08T06:28:16.639Z,5240.00
2018-04-08T06:29:16.637Z,5388.00
2018-04-08T06:30:16.695Z,5624.00
2018-04-08T06:31:16.642Z,5552.00
2018-04-08T06:32:16.634Z,5480.00
2018-04-08T06:33:16.634Z,5468.00
2018-04-08T06:34:16.634Z,5396.00
2018-04-08T06:35:16.631Z,5280.00
2018-04-08T06:36:16.630Z,5136.00
2018-04-08T06:37:16.629Z,4972.00
2018-04-08T06:38:16.629Z,4740.00
2018-04-08T06:39:16.628Z,4464.00
2018-04-08T06:40:16.627Z,4220.00
2018-04-08T06:41:16.629Z,4056.00
2018-04-08T06:42:16.626Z,3964.00
2018-04-08T06:43:16.625Z,3928.00
2018-04-08T06:44:16.629Z,3904.00
2018-04-08T06:45:16.628Z,3864.00
2018-04-08T06:46:16.622Z,3816.00
2018-04-08T06:47:16.620Z,3764.00
2018-04-08T06:48:16.625Z,3684.00
2018-04-08T06:49:16.624Z,3592.00
2018-04-08T06:50:16.620Z,3516.00
2018-04-08T06:51:16.618Z,3468.00
2018-04-08T06:52:16.619Z,3452.00
2018-04-08T06:53:16.618Z,3480.00
2018-04-08T06:54:16.616Z,3548.00
2018-04-08T06:55:16.617Z,3652.00
2018-04-08T06:56:16.619Z,3780.00
2018-04-08T06:57:16.618Z,3892.00
2018-04-08T06:58:16.618Z,3976.00
2018-04-08T06:59:16.612Z,3744.00
2018-04-08T07:00:16.614Z,3728.00
2018-04-08T07:01:16.614Z,3664.00
2018-04-08T07:02:16.610Z,3580.00
2018-04-08T07:03:16.610Z,3480.00
2018-04-08T07:04:16.614Z,3412.00
2018-04-08T07:05:16.620Z,3408.00
2018-04-08T07:06:16.607Z,3456.00
2018-04-08T07:07:16.606Z,3520.00
2018-04-08T07:08:16.609Z,3620.00
2018-04-08T07:09:16.610Z,3756.00
2018-04-08T07:10:16.611Z,3944.00
2018-04-08T07:11:16.607Z,4144.00
2018-04-08T07:12:16.603Z,4340.00
2018-04-08T07:13:16.602Z,4528.00
2018-04-08T07:14:16.607Z,4680.00
2018-04-08T07:15:16.602Z,4788.00
2018-04-08T07:16:16.600Z,4848.00
2018-04-08T07:17:16.603Z,4860.00
2018-04-08T07:18:16.616Z,4880.00
2018-04-08T07:19:16.598Z,4920.00
2018-04-08T07:20:16.620Z,4980.00
2018-04-08T07:21:16.597Z,5060.00
2018-04-08T07:22:16.602Z,5136.00
2018-04-08T07:23:16.599Z,5244.00
2018-04-08T07:24:16.596Z,5440.00
2018-04-08T07:25:16.594Z,5720.00
2018-04-08T07:26:16.595Z,6024.00
2018-04-08T07:27:16.593Z,6288.00
2018-04-08T07:28:16.596Z,6424.00
2018-04-08T07:29:16.598Z,6432.00
2018-04-08T07:30:16.594Z,6448.00
2018-04-08T07:31:16.592Z,6456.00
2018-04-08T07:32:16.590Z,6504.00
2018-04-08T07:33:16.591Z,6532.00
2018-04-08T07:34:16.590Z,6568.00
2018-04-08T07:35:16.593Z,6556.00
2018-04-08T07:36:16.588Z,6468.00
2018-04-08T07:37:16.589Z,6324.00
2018-04-08T07:38:16.587Z,6256.00
2018-04-08T07:39:16.588Z,6164.00
2018-04-08T07:40:16.591Z,6172.00
2018-04-08T07:41:16.592Z,6216.00
2018-04-08T07:42:16.591Z,6244.00
2018-04-08T07:43:16.590Z,6236.00
2018-04-08T07:44:16.586Z,6252.00
2018-04-08T07:45:16.587Z,6324.00
2018-04-08T07:46:16.587Z,6488.00
2018-04-08T07:47:16.585Z,6756.00
2018-04-08T07:48:16.585Z,7060.00
2018-04-08T07:49:16.587Z,7352.00
2018-04-08T07:50:16.587Z,7620.00
2018-04-08T07:51:16.585Z,7960.00
2018-04-08T07:52:16.586Z,8352.00
2018-04-08T07:53:16.587Z,8628.00
2018-04-08T07:54:16.590Z,8756.00
2018-04-08T07:55:16.590Z,8704.00
2018-04-08T07:56:16.587Z,8448.00
2018-04-08T07:57:16.587Z,8092.00
2018-04-08T07:58:16.588Z,7748.00
2018-04-08T07:59:16.587Z,7464.00
2018-04-08T08:00:16.588Z,7672.00
2018-04-08T08:01:16.589Z,7688.00
2018-04-08T08:02:16.593Z,7988.00
2018-04-08T08:03:16.593Z,9472.00
2018-04-08T08:04:16.590Z,9124.00
2018-04-08T08:05:16.591Z,9540.00
2018-04-08T08:06:16.597Z,10324.00
2018-04-08T08:07:16.596Z,11292.00
2018-04-08T08:08:16.593Z,12068.00
2018-04-08T08:09:16.645Z,12952.00
2018-04-08T08:10:16.595Z,13104.00
2018-04-08T08:11:16.596Z,14408.00
2018-04-08T08:12:16.603Z,20672.00
2018-04-08T08:13:16.599Z,15412.00
2018-04-08T08:14:16.602Z,14792.00
2018-04-08T08:15:16.604Z,14768.00
2018-04-08T08:16:16.603Z,14756.00
2018-04-08T08:17:16.605Z,16256.00
2018-04-08T08:18:16.618Z,17696.00
2018-04-08T08:19:16.606Z,22720.00
2018-04-08T08:20:16.613Z,14040.00
2018-04-08T08:21:16.615Z,11388.00
2018-04-08T08:22:16.613Z,9836.00
2018-04-08T08:23:16.616Z,9152.00
2018-04-08T08:24:16.626Z,8664.00
2018-04-08T08:25:16.627Z,8276.00
2018-04-08T08:26:16.622Z,8048.00
2018-04-08T08:27:16.624Z,7956.00
2018-04-08T08:28:16.626Z,7952.00
2018-04-08T08:29:16.629Z,8008.00
2018-04-08T08:30:16.638Z,8144.00
2018-04-08T08:31:16.635Z,8312.00
2018-04-08T08:32:16.637Z,8580.00
2018-04-08T08:33:16.639Z,8880.00
2018-04-08T08:34:16.646Z,9240.00
2018-04-08T08:35:16.647Z,9560.00
2018-04-08T08:36:16.645Z,9920.00
2018-04-08T08:37:16.655Z,10384.00
2018-04-08T08:38:16.666Z,10804.00
2018-04-08T08:39:16.657Z,11032.00
2018-04-08T08:40:16.656Z,10916.00
2018-04-08T08:41:16.659Z,10452.00
2018-04-08T08:42:16.660Z,9940.00
2018-04-08T08:43:16.663Z,9724.00
2018-04-08T08:44:16.667Z,9804.00
2018-04-08T08:45:16.667Z,10072.00
2018-04-08T08:46:16.669Z,10460.00
2018-04-08T08:47:16.671Z,10940.00
2018-04-08T08:48:16.675Z,11448.00
2018-04-08T08:49:16.677Z,12124.00
2018-04-08T08:50:16.679Z,12896.00
2018-04-08T08:51:16.679Z,13616.00
2018-04-08T08:52:16.686Z,14364.00
2018-04-08T08:53:16.688Z,15276.00
2018-04-08T08:54:16.687Z,16352.00
2018-04-08T08:55:16.689Z,17088.00
2018-04-08T08:56:16.702Z,17600.00
2018-04-08T08:57:16.698Z,17472.00
2018-04-08T08:58:16.697Z,17568.00
2018-04-08T08:59:16.701Z,17888.00
2018-04-08T09:00:16.742Z,17632.00
2018-04-08T09:01:16.706Z,17152.00
2018-04-08T09:02:16.712Z,16832.00
2018-04-08T09:03:16.710Z,17088.00
2018-04-08T09:04:16.714Z,18816.00
2018-04-08T09:05:16.716Z,18752.00
2018-04-08T09:06:16.723Z,21792.00
2018-04-08T09:07:16.726Z,20032.00
2018-04-08T09:08:16.725Z,20256.00
2018-04-08T09:09:16.732Z,20384.00
2018-04-08T09:10:16.746Z,20160.00
2018-04-08T09:11:16.739Z,20256.00
2018-04-08T09:12:16.740Z,20224.00
2018-04-08T09:13:16.744Z,23328.00
2018-04-08T09:14:16.756Z,24256.00
2018-04-08T09:15:16.753Z,20416.00
2018-04-08T09:16:16.756Z,21440.00
2018-04-08T09:17:16.760Z,21984.00
2018-04-08T09:18:16.767Z,22528.00
2018-04-08T09:19:16.770Z,25984.00
2018-04-08T09:20:16.774Z,29664.00
2018-04-08T09:21:16.780Z,42688.00
2018-04-08T09:22:16.784Z,48320.00
2018-04-08T09:23:16.792Z,46592.00
2018-04-08T09:24:16.799Z,43008.00
2018-04-08T09:25:16.805Z,47040.00
2018-04-08T09:26:16.807Z,41856.00
2018-04-08T09:27:16.813Z,41312.00
2018-04-08T09:28:16.827Z,39872.00
2018-04-08T09:29:16.832Z,42144.00
2018-04-08T09:30:16.838Z,45088.00
2018-04-08T09:31:16.845Z,45408.00
2018-04-08T09:32:16.858Z,47168.00
2018-04-08T09:33:16.864Z,41088.00
2018-04-08T09:34:16.873Z,25088.00
2018-04-08T09:35:16.883Z,21792.00
2018-04-08T09:36:16.910Z,22176.00
2018-04-08T09:37:16.904Z,20448.00
2018-04-08T09:38:16.920Z,19776.00
2018-04-08T09:39:16.930Z,19936.00
2018-04-08T09:40:16.948Z,19328.00
2018-04-08T09:41:16.950Z,18656.00
2018-04-08T09:42:16.962Z,19136.00
2018-04-08T09:43:16.976Z,25856.00
2018-04-08T09:44:16.978Z,19872.00
2018-04-08T09:45:16.992Z,19264.00
2018-04-08T09:46:17.000Z,19392.00
2018-04-08T09:47:17.010Z,19168.00
2018-04-08T09:48:17.018Z,18688.00
2018-04-08T09:49:17.027Z,18208.00
2018-04-08T09:50:17.038Z,17856.00
2018-04-08T09:51:17.044Z,17472.00
2018-04-08T09:52:17.053Z,17216.00
2018-04-08T09:53:17.062Z,17056.00
2018-04-08T09:54:17.070Z,16576.00
2018-04-08T09:55:17.077Z,16160.00
2018-04-08T09:56:17.091Z,15516.00
2018-04-08T09:57:17.098Z,14864.00
2018-04-08T09:58:17.102Z,14312.00
2018-04-08T09:59:17.145Z,13904.00
2018-04-08T10:00:17.121Z,13400.00
2018-04-08T10:01:17.129Z,13044.00
2018-04-08T10:02:17.134Z,12632.00
2018-04-08T10:03:17.138Z,12376.00
2018-04-08T10:04:17.146Z,12268.00
2018-04-08T10:05:17.153Z,12544.00
2018-04-08T10:06:17.160Z,12964.00
2018-04-08T10:07:17.166Z,13336.00
2018-04-08T10:08:17.175Z,13820.00
2018-04-08T10:09:17.183Z,14264.00
2018-04-08T10:10:17.185Z,14752.00
2018-04-08T10:11:17.191Z,15236.00
2018-04-08T10:12:17.197Z,15556.00
2018-04-08T10:13:17.202Z,16000.00
2018-04-08T10:14:17.209Z,16512.00
2018-04-08T10:15:17.215Z,16928.00
2018-04-08T10:16:17.220Z,17376.00
2018-04-08T10:17:17.226Z,18080.00
2018-04-08T10:18:17.235Z,18176.00
2018-04-08T10:19:17.237Z,18112.00
2018-04-08T10:20:17.247Z,20032.00
2018-04-08T10:21:17.253Z,18752.00
2018-04-08T10:22:17.258Z,18176.00
2018-04-08T10:23:17.290Z,17696.00
2018-04-08T10:24:17.265Z,17440.00
2018-04-08T10:25:17.271Z,16672.00
2018-04-08T10:26:17.278Z,16064.00
2018-04-08T10:27:17.282Z,15460.00
2018-04-08T10:28:17.288Z,14912.00
2018-04-08T10:29:17.352Z,14240.00
2018-04-08T10:30:17.328Z,13520.00
2018-04-08T10:31:17.305Z,13032.00
2018-04-08T10:32:17.312Z,12796.00
2018-04-08T10:33:17.317Z,12792.00
2018-04-08T10:34:17.326Z,13576.00
2018-04-08T10:35:17.335Z,18976.00
2018-04-08T10:36:17.332Z,16480.00
2018-04-08T10:37:17.340Z,19104.00
2018-04-08T10:38:17.345Z,18496.00
2018-04-08T10:39:17.350Z,19040.00
2018-04-08T10:40:17.359Z,20384.00
2018-04-08T10:41:17.365Z,19584.00
2018-04-08T10:42:17.369Z,20736.00
2018-04-08T10:43:17.372Z,21696.00
2018-04-08T10:44:17.379Z,26848.00
2018-04-08T10:45:17.385Z,25984.00
2018-04-08T10:46:17.396Z,32160.00
2018-04-08T10:47:17.399Z,26112.00
2018-04-08T10:48:17.404Z,26912.00
2018-04-08T10:49:17.411Z,26816.00
2018-04-08T10:50:17.417Z,28448.00
2018-04-08T10:51:17.424Z,22432.00
2018-04-08T10:52:17.435Z,20160.00
2018-04-08T10:53:17.444Z,18528.00
2018-04-08T10:54:17.451Z,17248.00
2018-04-08T10:55:17.457Z,16032.00
2018-04-08T10:56:17.461Z,15192.00
2018-04-08T10:57:17.468Z,14764.00
2018-04-08T10:58:17.481Z,14420.00
2018-04-08T10:59:17.484Z,13976.00
2018-04-08T11:00:17.491Z,13580.00
2018-04-08T11:01:17.499Z,13316.00
2018-04-08T11:02:17.505Z,13260.00
2018-04-08T11:03:17.518Z,13352.00
2018-04-08T11:04:17.520Z,13752.00
2018-04-08T11:05:17.527Z,14424.00
2018-04-08T11:06:17.541Z,15488.00
2018-04-08T11:07:17.544Z,16608.00
2018-04-08T11:08:17.554Z,17088.00
2018-04-08T11:09:17.555Z,18240.00
2018-04-08T11:10:17.565Z,20384.00
2018-04-08T11:11:17.569Z,20960.00
2018-04-08T11:12:17.575Z,25408.00
2018-04-08T11:13:17.583Z,28128.00
2018-04-08T11:14:17.594Z,23968.00
2018-04-08T11:15:17.600Z,22144.00
2018-04-08T11:16:17.603Z,22656.00
2018-04-08T11:17:17.611Z,23872.00
2018-04-08T11:18:17.622Z,28384.00
2018-04-08T11:19:17.628Z,30560.00
2018-04-08T11:20:17.634Z,38176.00
2018-04-08T11:21:17.641Z,31072.00
2018-04-08T11:22:17.649Z,27104.00
2018-04-08T11:23:17.657Z,23744.00
2018-04-08T11:24:17.664Z,21664.00
2018-04-08T11:25:17.674Z,21376.00
2018-04-08T11:26:17.682Z,17152.00
2018-04-08T11:27:17.690Z,16992.00
2018-04-08T11:28:17.699Z,16384.00
2018-04-08T11:29:17.707Z,15680.00
2018-04-08T11:30:17.716Z,15456.00
2018-04-08T11:31:17.724Z,15712.00
2018-04-08T11:32:17.738Z,15808.00
2018-04-08T11:33:17.746Z,15840.00
2018-04-08T11:34:17.751Z,15872.00
2018-04-08T11:35:17.760Z,16352.00
2018-04-08T11:36:17.772Z,16832.00
2018-04-08T11:37:17.782Z,16640.00
2018-04-08T11:38:17.785Z,16288.00
2018-04-08T11:39:17.792Z,16064.00
2018-04-08T11:40:17.801Z,16064.00
2018-04-08T11:41:17.810Z,15840.00
2018-04-08T11:42:17.818Z,15492.00
2018-04-08T11:43:17.826Z,15256.00
2018-04-08T11:44:17.834Z,15192.00
2018-04-08T11:45:17.842Z,15428.00
2018-04-08T11:46:17.854Z,16064.00
2018-04-08T11:47:17.865Z,16576.00
2018-04-08T11:48:17.867Z,16896.00
2018-04-08T11:49:17.875Z,17504.00
2018-04-08T11:50:17.886Z,17856.00
2018-04-08T11:51:17.928Z,17632.00
2018-04-08T11:52:17.897Z,16576.00
2018-04-08T11:53:17.905Z,16928.00
2018-04-08T11:54:17.914Z,15696.00
2018-04-08T11:55:17.924Z,15324.00
2018-04-08T11:56:17.930Z,16768.00
2018-04-08T11:57:17.936Z,15692.00
2018-04-08T11:58:17.945Z,16224.00
2018-04-08T11:59:17.952Z,16320.00
2018-04-08T12:00:17.959Z,16768.00
2018-04-08T12:01:17.966Z,16352.00
2018-04-08T12:02:17.974Z,15492.00
2018-04-08T12:03:17.980Z,14772.00
2018-04-08T12:04:17.992Z,14172.00
2018-04-08T12:05:18.001Z,13820.00
2018-04-08T12:06:18.004Z,13680.00
2018-04-08T12:07:18.010Z,13796.00
2018-04-08T12:08:18.022Z,13908.00
2018-04-08T12:09:18.030Z,13904.00
2018-04-08T12:10:18.033Z,13780.00
2018-04-08T12:11:18.040Z,13744.00
2018-04-08T12:12:18.047Z,13752.00
2018-04-08T12:13:18.054Z,13520.00
2018-04-08T12:14:18.060Z,13680.00
2018-04-08T12:15:18.072Z,14312.00
2018-04-08T12:16:18.080Z,14112.00
2018-04-08T12:17:18.086Z,14248.00
2018-04-08T12:18:18.090Z,14408.00
2018-04-08T12:19:18.094Z,14836.00
2018-04-08T12:20:18.102Z,13808.00
2018-04-08T12:21:18.113Z,14140.00
2018-04-08T12:22:18.116Z,13652.00
2018-04-08T12:23:18.122Z,12568.00
2018-04-08T12:24:18.129Z,12040.00
2018-04-08T12:25:18.137Z,11188.00